sensor_id;sensor_type;location;lat;lon;timestamp;pressure;altitude;pressure_sealevel;temperature;humidity
71917;BME280;59793;46.506;6.674;2023-03-14T00:01:14;96141.00;;;9.98;77.55
71917;BME280;59793;46.506;6.674;2023-03-14T00:03:40;96147.44;;;10.00;78.63
71917;BME280;59793;46.506;6.674;2023-03-14T00:06:06;96145.72;;;10.15;79.20
71917;BME280;59793;46.506;6.674;2023-03-14T00:08:32;96154.22;;;10.35;78.06
71917;BME280;59793;46.506;6.674;2023-03-14T00:10:58;96151.66;;;10.42;77.83
71917;BME280;59793;46.506;6.674;2023-03-14T00:13:28;96159.97;;;10.44;78.01
71917;BME280;59793;46.506;6.674;2023-03-14T00:15:53;96153.56;;;10.45;77.14
71917;BME280;59793;46.506;6.674;2023-03-14T00:18:19;96168.66;;;10.48;76.41
71917;BME280;59793;46.506;6.674;2023-03-14T00:20:44;96153.50;;;10.38;76.78
71917;BME280;59793;46.506;6.674;2023-03-14T00:23:10;96167.94;;;10.51;75.77
71917;BME280;59793;46.506;6.674;2023-03-14T00:25:35;96160.44;;;10.53;76.52
71917;BME280;59793;46.506;6.674;2023-03-14T00:28:01;96174.84;;;10.67;76.22
71917;BME280;59793;46.506;6.674;2023-03-14T00:30:26;96162.13;;;10.72;75.90
71917;BME280;59793;46.506;6.674;2023-03-14T00:32:51;96154.66;;;10.78;74.81
71917;BME280;59793;46.506;6.674;2023-03-14T00:35:17;96166.44;;;10.50;75.91
71917;BME280;59793;46.506;6.674;2023-03-14T00:37:42;96167.19;;;10.21;78.62
71917;BME280;59793;46.506;6.674;2023-03-14T00:40:08;96188.06;;;10.33;79.28
71917;BME280;59793;46.506;6.674;2023-03-14T00:42:34;96202.81;;;10.41;78.48
71917;BME280;59793;46.506;6.674;2023-03-14T00:44:59;96191.91;;;10.39;78.86
71917;BME280;59793;46.506;6.674;2023-03-14T00:47:25;96208.94;;;10.52;79.56
71917;BME280;59793;46.506;6.674;2023-03-14T00:49:50;96212.22;;;10.42;80.08
71917;BME280;59793;46.506;6.674;2023-03-14T00:52:16;96195.72;;;10.45;78.39
71917;BME280;59793;46.506;6.674;2023-03-14T00:54:41;96221.97;;;10.38;80.30
71917;BME280;59793;46.506;6.674;2023-03-14T00:57:06;96203.16;;;10.36;80.35
71917;BME280;59793;46.506;6.674;2023-03-14T00:59:32;96214.44;;;10.37;80.69
71917;BME280;59793;46.506;6.674;2023-03-14T01:01:57;96208.34;;;10.29;81.10
71917;BME280;59793;46.506;6.674;2023-03-14T01:04:22;96200.94;;;10.12;81.25
71917;BME280;59793;46.506;6.674;2023-03-14T01:06:48;96201.91;;;10.26;80.34
71917;BME280;59793;46.506;6.674;2023-03-14T01:09:32;96208.41;;;10.36;80.05
71917;BME280;59793;46.506;6.674;2023-03-14T01:11:57;96211.34;;;10.31;76.63
71917;BME280;59793;46.506;6.674;2023-03-14T01:15:00;96214.56;;;10.47;76.82
71917;BME280;59793;46.506;6.674;2023-03-14T01:17:44;96215.91;;;10.68;76.40
71917;BME280;59793;46.506;6.674;2023-03-14T01:20:47;96203.00;;;10.59;76.86
71917;BME280;59793;46.506;6.674;2023-03-14T01:23:12;96177.28;;;10.45;76.10
71917;BME280;59793;46.506;6.674;2023-03-14T01:28:59;96177.47;;;10.67;72.74
71917;BME280;59793;46.506;6.674;2023-03-14T01:34:46;96163.81;;;10.50;75.09
71917;BME280;59793;46.506;6.674;2023-03-14T01:37:12;96146.88;;;10.51;74.63
71917;BME280;59793;46.506;6.674;2023-03-14T01:39:38;96140.88;;;10.55;75.21
71917;BME280;59793;46.506;6.674;2023-03-14T01:53:45;96111.25;;;10.65;73.98
71917;BME280;59793;46.506;6.674;2023-03-14T01:56:13;96087.44;;;10.50;73.36
71917;BME280;59793;46.506;6.674;2023-03-14T02:09:09;96088.47;;;10.42;73.04
71917;BME280;59793;46.506;6.674;2023-03-14T02:14:37;96088.81;;;10.37;68.59
71917;BME280;59793;46.506;6.674;2023-03-14T02:20:13;96049.13;;;10.19;69.61
71917;BME280;59793;46.506;6.674;2023-03-14T02:22:42;96048.47;;;9.92;68.25
71917;BME280;59793;46.506;6.674;2023-03-14T02:30:30;96008.72;;;9.97;67.96
71917;BME280;59793;46.506;6.674;2023-03-14T02:33:17;95988.53;;;10.12;68.59
71917;BME280;59793;46.506;6.674;2023-03-14T02:36:05;96004.22;;;10.01;69.48
71917;BME280;59793;46.506;6.674;2023-03-14T02:38:53;96007.31;;;10.07;71.18
71917;BME280;59793;46.506;6.674;2023-03-14T02:41:21;96003.56;;;10.12;71.50
71917;BME280;59793;46.506;6.674;2023-03-14T02:43:46;95996.81;;;10.11;72.82
71917;BME280;59793;46.506;6.674;2023-03-14T02:46:14;96020.22;;;10.23;73.62
71917;BME280;59793;46.506;6.674;2023-03-14T02:48:48;96025.84;;;9.84;73.74
71917;BME280;59793;46.506;6.674;2023-03-14T02:51:16;96016.84;;;9.85;72.91
71917;BME280;59793;46.506;6.674;2023-03-14T02:53:41;95994.00;;;9.96;73.33
71917;BME280;59793;46.506;6.674;2023-03-14T02:56:08;96004.16;;;9.94;72.38
71917;BME280;59793;46.506;6.674;2023-03-14T02:58:34;96033.28;;;10.12;71.85
71917;BME280;59793;46.506;6.674;2023-03-14T03:00:59;96026.50;;;10.11;73.12
71917;BME280;59793;46.506;6.674;2023-03-14T03:03:24;95982.31;;;9.90;72.92
71917;BME280;59793;46.506;6.674;2023-03-14T03:05:51;96018.78;;;10.29;73.24
71917;BME280;59793;46.506;6.674;2023-03-14T03:08:21;96008.25;;;10.29;73.91
71917;BME280;59793;46.506;6.674;2023-03-14T03:10:48;96004.56;;;10.37;74.09
71917;BME280;59793;46.506;6.674;2023-03-14T03:13:14;95981.97;;;10.33;74.02
71917;BME280;59793;46.506;6.674;2023-03-14T03:15:39;95978.63;;;10.39;75.11
71917;BME280;59793;46.506;6.674;2023-03-14T03:18:06;95975.75;;;10.11;76.46
71917;BME280;59793;46.506;6.674;2023-03-14T03:20:31;95972.56;;;9.91;78.28
71917;BME280;59793;46.506;6.674;2023-03-14T03:22:58;95955.22;;;9.82;79.35
71917;BME280;59793;46.506;6.674;2023-03-14T03:25:24;95962.72;;;9.84;79.30
71917;BME280;59793;46.506;6.674;2023-03-14T03:27:49;95976.81;;;9.65;80.88
71917;BME280;59793;46.506;6.674;2023-03-14T03:30:15;95948.88;;;9.53;81.56
71917;BME280;59793;46.506;6.674;2023-03-14T03:32:40;95963.19;;;9.56;82.03
71917;BME280;59793;46.506;6.674;2023-03-14T03:35:06;95965.31;;;9.43;83.18
71917;BME280;59793;46.506;6.674;2023-03-14T03:37:32;95965.25;;;9.40;83.48
71917;BME280;59793;46.506;6.674;2023-03-14T03:39:58;95967.66;;;9.18;84.25
71917;BME280;59793;46.506;6.674;2023-03-14T03:42:23;95931.88;;;9.06;84.92
71917;BME280;59793;46.506;6.674;2023-03-14T03:44:48;95927.94;;;9.23;84.89
71917;BME280;59793;46.506;6.674;2023-03-14T03:47:15;95906.78;;;9.13;84.44
71917;BME280;59793;46.506;6.674;2023-03-14T03:49:40;95935.09;;;9.26;84.63
71917;BME280;59793;46.506;6.674;2023-03-14T03:52:06;95941.75;;;9.17;85.05
71917;BME280;59793;46.506;6.674;2023-03-14T03:54:31;95925.22;;;9.16;84.08
71917;BME280;59793;46.506;6.674;2023-03-14T03:56:56;95894.38;;;9.09;83.28
71917;BME280;59793;46.506;6.674;2023-03-14T03:59:22;95871.44;;;9.06;83.55
71917;BME280;59793;46.506;6.674;2023-03-14T04:01:47;95913.72;;;9.28;83.53
71917;BME280;59793;46.506;6.674;2023-03-14T04:04:13;95914.84;;;9.27;83.08
71917;BME280;59793;46.506;6.674;2023-03-14T04:06:39;95889.28;;;9.24;82.27
71917;BME280;59793;46.506;6.674;2023-03-14T04:09:05;95894.31;;;9.43;82.51
71917;BME280;59793;46.506;6.674;2023-03-14T04:11:30;95880.59;;;9.20;82.31
71917;BME280;59793;46.506;6.674;2023-03-14T04:13:56;95891.19;;;9.27;82.24
71917;BME280;59793;46.506;6.674;2023-03-14T04:16:23;95894.19;;;9.29;81.09
71917;BME280;59793;46.506;6.674;2023-03-14T04:18:50;95873.91;;;9.26;81.64
71917;BME280;59793;46.506;6.674;2023-03-14T04:21:16;95856.28;;;9.30;80.90
71917;BME280;59793;46.506;6.674;2023-03-14T04:23:41;95858.94;;;9.30;79.98
71917;BME280;59793;46.506;6.674;2023-03-14T04:26:07;95824.16;;;9.06;80.23
71917;BME280;59793;46.506;6.674;2023-03-14T04:31:54;95836.78;;;9.31;77.57
71917;BME280;59793;46.506;6.674;2023-03-14T04:34:19;95860.47;;;9.34;77.21
71917;BME280;59793;46.506;6.674;2023-03-14T04:36:45;95866.41;;;9.28;78.06
71917;BME280;59793;46.506;6.674;2023-03-14T04:39:10;95852.47;;;9.24;78.40
71917;BME280;59793;46.506;6.674;2023-03-14T04:41:35;95826.09;;;9.13;78.42
71917;BME280;59793;46.506;6.674;2023-03-14T04:44:01;95846.03;;;9.18;79.55
71917;BME280;59793;46.506;6.674;2023-03-14T04:46:26;95801.44;;;8.88;79.36
71917;BME280;59793;46.506;6.674;2023-03-14T04:48:51;95828.06;;;9.23;79.05
71917;BME280;59793;46.506;6.674;2023-03-14T04:51:17;95803.75;;;9.33;78.88
71917;BME280;59793;46.506;6.674;2023-03-14T04:53:42;95796.44;;;9.57;77.39
71917;BME280;59793;46.506;6.674;2023-03-14T04:56:08;95801.00;;;9.64;76.20
71917;BME280;59793;46.506;6.674;2023-03-14T04:58:33;95789.00;;;9.66;76.96
71917;BME280;59793;46.506;6.674;2023-03-14T05:01:03;95736.75;;;9.13;77.95
71917;BME280;59793;46.506;6.674;2023-03-14T05:03:28;95757.88;;;9.24;78.10
71917;BME280;59793;46.506;6.674;2023-03-14T05:05:54;95776.72;;;9.33;78.71
71917;BME280;59793;46.506;6.674;2023-03-14T05:08:20;95782.63;;;9.19;76.97
71917;BME280;59793;46.506;6.674;2023-03-14T05:10:52;95770.16;;;9.13;77.33
71917;BME280;59793;46.506;6.674;2023-03-14T05:13:17;95752.44;;;9.02;76.83
71917;BME280;59793;46.506;6.674;2023-03-14T05:15:43;95745.94;;;8.89;76.97
71917;BME280;59793;46.506;6.674;2023-03-14T05:18:08;95763.25;;;8.97;76.31
71917;BME280;59793;46.506;6.674;2023-03-14T05:20:33;95773.81;;;9.04;76.49
71917;BME280;59793;46.506;6.674;2023-03-14T05:22:59;95740.84;;;8.66;77.73
71917;BME280;59793;46.506;6.674;2023-03-14T05:25:24;95755.94;;;8.76;77.66
71917;BME280;59793;46.506;6.674;2023-03-14T05:27:49;95736.22;;;8.56;78.39
71917;BME280;59793;46.506;6.674;2023-03-14T05:30:15;95753.59;;;8.68;78.95
71917;BME280;59793;46.506;6.674;2023-03-14T05:32:40;95758.47;;;8.69;80.07
71917;BME280;59793;46.506;6.674;2023-03-14T05:35:06;95762.97;;;8.69;80.37
71917;BME280;59793;46.506;6.674;2023-03-14T05:37:31;95763.53;;;8.85;79.12
71917;BME280;59793;46.506;6.674;2023-03-14T05:39:57;95759.78;;;8.86;78.54
71917;BME280;59793;46.506;6.674;2023-03-14T05:42:22;95760.97;;;8.92;78.65
71917;BME280;59793;46.506;6.674;2023-03-14T05:44:47;95768.81;;;8.89;78.91
71917;BME280;59793;46.506;6.674;2023-03-14T05:47:13;95750.78;;;8.83;78.61
71917;BME280;59793;46.506;6.674;2023-03-14T05:49:38;95755.28;;;8.86;78.87
71917;BME280;59793;46.506;6.674;2023-03-14T05:52:04;95743.16;;;8.75;78.09
71917;BME280;59793;46.506;6.674;2023-03-14T05:54:30;95778.19;;;8.90;79.04
71917;BME280;59793;46.506;6.674;2023-03-14T05:56:55;95756.59;;;8.66;79.39
71917;BME280;59793;46.506;6.674;2023-03-14T05:59:20;95778.09;;;8.79;79.96
71917;BME280;59793;46.506;6.674;2023-03-14T06:01:46;95740.31;;;8.53;80.19
71917;BME280;59793;46.506;6.674;2023-03-14T06:04:11;95782.22;;;8.76;79.37
71917;BME280;59793;46.506;6.674;2023-03-14T06:06:37;95774.69;;;8.75;79.46
71917;BME280;59793;46.506;6.674;2023-03-14T06:09:02;95809.28;;;8.84;79.95
71917;BME280;59793;46.506;6.674;2023-03-14T06:11:28;95792.59;;;8.69;79.52
71917;BME280;59793;46.506;6.674;2023-03-14T06:13:53;95798.00;;;8.80;79.40
71917;BME280;59793;46.506;6.674;2023-03-14T06:16:18;95808.09;;;8.78;80.86
71917;BME280;59793;46.506;6.674;2023-03-14T06:18:44;95818.19;;;8.76;79.36
71917;BME280;59793;46.506;6.674;2023-03-14T06:21:12;95829.59;;;8.87;78.03
71917;BME280;59793;46.506;6.674;2023-03-14T06:23:37;95822.47;;;8.88;76.27
71917;BME280;59793;46.506;6.674;2023-03-14T06:26:04;95832.69;;;8.96;76.63
71917;BME280;59793;46.506;6.674;2023-03-14T06:28:29;95840.84;;;8.88;76.63
71917;BME280;59793;46.506;6.674;2023-03-14T06:30:55;95836.22;;;8.77;77.96
71917;BME280;59793;46.506;6.674;2023-03-14T06:33:20;95834.63;;;8.69;77.98
71917;BME280;59793;46.506;6.674;2023-03-14T06:35:45;95832.34;;;8.68;78.92
71917;BME280;59793;46.506;6.674;2023-03-14T06:38:10;95845.03;;;8.62;79.76
71917;BME280;59793;46.506;6.674;2023-03-14T06:40:36;95852.88;;;8.58;80.55
71917;BME280;59793;46.506;6.674;2023-03-14T06:43:01;95831.66;;;8.41;81.39
71917;BME280;59793;46.506;6.674;2023-03-14T06:45:27;95828.16;;;8.33;82.28
71917;BME280;59793;46.506;6.674;2023-03-14T06:47:52;95840.88;;;8.31;82.20
71917;BME280;59793;46.506;6.674;2023-03-14T06:50:18;95847.94;;;8.27;82.83
71917;BME280;59793;46.506;6.674;2023-03-14T06:52:43;95820.38;;;8.10;82.83
71917;BME280;59793;46.506;6.674;2023-03-14T06:55:13;95832.91;;;8.24;82.92
71917;BME280;59793;46.506;6.674;2023-03-14T06:57:39;95865.69;;;8.37;82.90
71917;BME280;59793;46.506;6.674;2023-03-14T07:00:05;95868.63;;;8.32;82.11
71917;BME280;59793;46.506;6.674;2023-03-14T07:02:31;95871.38;;;8.39;82.53
71917;BME280;59793;46.506;6.674;2023-03-14T07:04:56;95852.38;;;8.23;82.21
71917;BME280;59793;46.506;6.674;2023-03-14T07:07:21;95871.75;;;8.37;82.37
71917;BME280;59793;46.506;6.674;2023-03-14T07:09:47;95880.53;;;8.26;82.00
71917;BME280;59793;46.506;6.674;2023-03-14T07:12:12;95863.47;;;8.12;81.74
71917;BME280;59793;46.506;6.674;2023-03-14T07:14:38;95868.44;;;8.18;82.14
71917;BME280;59793;46.506;6.674;2023-03-14T07:17:03;95888.81;;;8.28;81.90
71917;BME280;59793;46.506;6.674;2023-03-14T07:19:28;95851.91;;;7.90;81.14
71917;BME280;59793;46.506;6.674;2023-03-14T07:21:54;95904.09;;;8.22;82.06
71917;BME280;59793;46.506;6.674;2023-03-14T07:24:19;95916.56;;;8.29;81.42
71917;BME280;59793;46.506;6.674;2023-03-14T07:26:45;95897.63;;;8.16;82.06
71917;BME280;59793;46.506;6.674;2023-03-14T07:29:10;95925.94;;;8.30;81.89
71917;BME280;59793;46.506;6.674;2023-03-14T07:31:35;95936.00;;;8.24;82.32
71917;BME280;59793;46.506;6.674;2023-03-14T07:34:01;95893.75;;;8.06;82.82
71917;BME280;59793;46.506;6.674;2023-03-14T07:36:26;95940.88;;;8.26;83.32
71917;BME280;59793;46.506;6.674;2023-03-14T07:38:52;95940.78;;;8.19;83.55
71917;BME280;59793;46.506;6.674;2023-03-14T07:41:18;95944.56;;;8.21;83.70
71917;BME280;59793;46.506;6.674;2023-03-14T07:43:43;95944.50;;;8.18;83.78
71917;BME280;59793;46.506;6.674;2023-03-14T07:46:09;95944.09;;;8.15;83.90
71917;BME280;59793;46.506;6.674;2023-03-14T07:48:34;95919.88;;;7.99;84.42
71917;BME280;59793;46.506;6.674;2023-03-14T07:51:00;95951.28;;;8.19;85.05
71917;BME280;59793;46.506;6.674;2023-03-14T07:53:25;95933.28;;;7.94;84.88
71917;BME280;59793;46.506;6.674;2023-03-14T07:55:52;95924.81;;;8.04;84.92
71917;BME280;59793;46.506;6.674;2023-03-14T07:58:18;95930.44;;;8.03;85.03
71917;BME280;59793;46.506;6.674;2023-03-14T08:00:43;95958.03;;;8.20;85.16
71917;BME280;59793;46.506;6.674;2023-03-14T08:03:09;95932.00;;;8.07;84.70
71917;BME280;59793;46.506;6.674;2023-03-14T08:05:38;95961.97;;;8.33;84.45
71917;BME280;59793;46.506;6.674;2023-03-14T08:08:04;95953.94;;;8.22;85.00
71917;BME280;59793;46.506;6.674;2023-03-14T08:10:30;95964.00;;;8.17;85.61
71917;BME280;59793;46.506;6.674;2023-03-14T08:12:59;95951.03;;;8.04;85.84
71917;BME280;59793;46.506;6.674;2023-03-14T08:15:26;95962.00;;;8.10;85.87
71917;BME280;59793;46.506;6.674;2023-03-14T08:17:52;95944.63;;;8.02;85.36
71917;BME280;59793;46.506;6.674;2023-03-14T08:20:20;95974.78;;;8.11;85.29
71917;BME280;59793;46.506;6.674;2023-03-14T08:22:46;95938.94;;;7.96;85.68
71917;BME280;59793;46.506;6.674;2023-03-14T08:25:12;95959.72;;;8.08;84.85
71917;BME280;59793;46.506;6.674;2023-03-14T08:27:37;95986.06;;;8.15;85.60
71917;BME280;59793;46.506;6.674;2023-03-14T08:30:05;95975.78;;;8.03;85.96
71917;BME280;59793;46.506;6.674;2023-03-14T08:32:30;95988.31;;;8.13;84.76
71917;BME280;59793;46.506;6.674;2023-03-14T08:34:56;95980.75;;;8.12;84.92
71917;BME280;59793;46.506;6.674;2023-03-14T08:37:21;95994.00;;;8.19;84.66
71917;BME280;59793;46.506;6.674;2023-03-14T08:39:47;95989.91;;;8.22;84.79
71917;BME280;59793;46.506;6.674;2023-03-14T08:42:12;95997.84;;;8.25;84.39
71917;BME280;59793;46.506;6.674;2023-03-14T08:44:38;95985.31;;;8.15;84.36
71917;BME280;59793;46.506;6.674;2023-03-14T08:47:04;95996.34;;;8.24;83.65
71917;BME280;59793;46.506;6.674;2023-03-14T08:49:29;95991.75;;;8.18;82.72
71917;BME280;59793;46.506;6.674;2023-03-14T08:51:54;96010.22;;;8.25;83.20
71917;BME280;59793;46.506;6.674;2023-03-14T08:54:20;96020.47;;;8.33;82.27
71917;BME280;59793;46.506;6.674;2023-03-14T08:56:45;96015.84;;;8.27;82.80
71917;BME280;59793;46.506;6.674;2023-03-14T08:59:11;96029.75;;;8.27;83.29
71917;BME280;59793;46.506;6.674;2023-03-14T09:01:36;96043.63;;;8.28;82.95
71917;BME280;59793;46.506;6.674;2023-03-14T09:04:02;96037.50;;;8.20;84.13
71917;BME280;59793;46.506;6.674;2023-03-14T09:06:28;96034.03;;;8.16;84.75
71917;BME280;59793;46.506;6.674;2023-03-14T09:08:53;96005.63;;;7.95;84.12
71917;BME280;59793;46.506;6.674;2023-03-14T09:11:18;96030.16;;;8.06;83.43
71917;BME280;59793;46.506;6.674;2023-03-14T09:13:44;96035.09;;;8.11;84.62
71917;BME280;59793;46.506;6.674;2023-03-14T09:16:09;96055.28;;;8.07;84.89
71917;BME280;59793;46.506;6.674;2023-03-14T09:18:35;96062.84;;;8.12;85.48
71917;BME280;59793;46.506;6.674;2023-03-14T09:21:01;96021.78;;;7.78;86.30
71917;BME280;59793;46.506;6.674;2023-03-14T09:23:26;96070.47;;;7.98;84.88
71917;BME280;59793;46.506;6.674;2023-03-14T09:25:56;96075.63;;;7.95;85.96
71917;BME280;59793;46.506;6.674;2023-03-14T09:28:21;96096.13;;;8.08;86.35
71917;BME280;59793;46.506;6.674;2023-03-14T09:30:47;96110.66;;;8.02;85.31
71917;BME280;59793;46.506;6.674;2023-03-14T09:33:12;96106.09;;;7.99;86.13
71917;BME280;59793;46.506;6.674;2023-03-14T09:35:38;96107.91;;;7.95;86.20
71917;BME280;59793;46.506;6.674;2023-03-14T09:38:03;96132.09;;;8.08;86.63
71917;BME280;59793;46.506;6.674;2023-03-14T09:40:34;96135.75;;;8.03;85.89
71917;BME280;59793;46.506;6.674;2023-03-14T09:43:00;96139.69;;;8.13;84.94
71917;BME280;59793;46.506;6.674;2023-03-14T09:45:36;96156.19;;;8.13;85.20
71917;BME280;59793;46.506;6.674;2023-03-14T09:48:04;96171.66;;;8.19;84.77
71917;BME280;59793;46.506;6.674;2023-03-14T09:50:42;96155.56;;;8.01;82.96
71917;BME280;59793;46.506;6.674;2023-03-14T09:53:20;96184.84;;;8.22;81.41
71917;BME280;59793;46.506;6.674;2023-03-14T09:55:49;96174.91;;;8.12;80.87
71917;BME280;59793;46.506;6.674;2023-03-14T09:58:20;96196.56;;;8.28;80.90
71917;BME280;59793;46.506;6.674;2023-03-14T10:00:46;96223.25;;;8.30;80.52
71917;BME280;59793;46.506;6.674;2023-03-14T10:05:37;96200.38;;;8.31;79.46
71917;BME280;59793;46.506;6.674;2023-03-14T10:08:03;96236.00;;;8.32;79.05
71917;BME280;59793;46.506;6.674;2023-03-14T10:10:28;96224.41;;;8.33;78.69
71917;BME280;59793;46.506;6.674;2023-03-14T10:12:59;96232.13;;;8.26;79.03
71917;BME280;59793;46.506;6.674;2023-03-14T10:15:30;96301.47;;;8.25;77.29
71917;BME280;59793;46.506;6.674;2023-03-14T10:17:59;96249.31;;;8.23;78.51
71917;BME280;59793;46.506;6.674;2023-03-14T10:22:52;96255.97;;;8.17;80.04
71917;BME280;59793;46.506;6.674;2023-03-14T10:25:27;96227.16;;;8.01;78.47
71917;BME280;59793;46.506;6.674;2023-03-14T10:27:53;96244.34;;;7.99;79.92
71917;BME280;59793;46.506;6.674;2023-03-14T10:30:39;96269.47;;;8.19;78.00
71917;BME280;59793;46.506;6.674;2023-03-14T10:33:12;96275.47;;;8.20;78.24
71917;BME280;59793;46.506;6.674;2023-03-14T10:35:44;96279.88;;;8.31;78.57
71917;BME280;59793;46.506;6.674;2023-03-14T10:38:16;96279.13;;;8.31;75.86
71917;BME280;59793;46.506;6.674;2023-03-14T10:40:47;96277.09;;;8.24;75.77
71917;BME280;59793;46.506;6.674;2023-03-14T10:43:17;96293.56;;;8.41;75.77
71917;BME280;59793;46.506;6.674;2023-03-14T10:45:51;96303.13;;;8.49;75.82
71917;BME280;59793;46.506;6.674;2023-03-14T10:48:23;96308.50;;;8.56;75.72
71917;BME280;59793;46.506;6.674;2023-03-14T10:50:56;96289.50;;;8.43;74.88
71917;BME280;59793;46.506;6.674;2023-03-14T10:53:22;96315.34;;;8.60;74.74
71917;BME280;59793;46.506;6.674;2023-03-14T10:55:48;96291.94;;;8.52;74.46
71917;BME280;59793;46.506;6.674;2023-03-14T10:58:46;96306.41;;;8.65;74.11
71917;BME280;59793;46.506;6.674;2023-03-14T11:03:53;96343.78;;;8.58;74.84
71917;BME280;59793;46.506;6.674;2023-03-14T11:06:48;96338.41;;;8.51;74.45
71917;BME280;59793;46.506;6.674;2023-03-14T11:15:27;96356.13;;;8.74;72.34
71917;BME280;59793;46.506;6.674;2023-03-14T11:20:35;96314.84;;;8.55;71.39
71917;BME280;59793;46.506;6.674;2023-03-14T11:23:23;96373.75;;;8.93;70.44
71917;BME280;59793;46.506;6.674;2023-03-14T11:28:29;96395.66;;;9.00;70.51
71917;BME280;59793;46.506;6.674;2023-03-14T11:34:01;96443.09;;;9.07;72.42
71917;BME280;59793;46.506;6.674;2023-03-14T11:36:31;96437.00;;;9.03;73.78
71917;BME280;59793;46.506;6.674;2023-03-14T11:38:59;96470.94;;;8.10;70.73
71917;BME280;59793;46.506;6.674;2023-03-14T11:41:51;96498.53;;;7.19;74.50
71917;BME280;59793;46.506;6.674;2023-03-14T11:47:00;96520.19;;;6.67;79.20
71917;BME280;59793;46.506;6.674;2023-03-14T11:52:27;96512.13;;;6.73;76.05
71917;BME280;59793;46.506;6.674;2023-03-14T11:57:42;96512.56;;;6.87;76.25
71917;BME280;59793;46.506;6.674;2023-03-14T12:00:17;96532.38;;;7.12;75.90
71917;BME280;59793;46.506;6.674;2023-03-14T12:03:13;96530.16;;;7.27;75.92
71917;BME280;59793;46.506;6.674;2023-03-14T12:08:36;96539.94;;;7.54;72.79
71917;BME280;59793;46.506;6.674;2023-03-14T12:13:50;96546.88;;;7.90;76.06
71917;BME280;59793;46.506;6.674;2023-03-14T12:18:50;96547.88;;;8.30;75.19
71917;BME280;59793;46.506;6.674;2023-03-14T12:21:17;96518.50;;;8.24;74.72
71917;BME280;59793;46.506;6.674;2023-03-14T12:23:50;96537.38;;;8.30;71.21
71917;BME280;59793;46.506;6.674;2023-03-14T12:26:21;96546.25;;;8.37;72.49
71917;BME280;59793;46.506;6.674;2023-03-14T12:42:24;96555.03;;;8.77;70.93
71917;BME280;59793;46.506;6.674;2023-03-14T12:50:14;96507.16;;;8.36;70.34
71917;BME280;59793;46.506;6.674;2023-03-14T12:55:42;96485.63;;;9.32;68.60
71917;BME280;59793;46.506;6.674;2023-03-14T13:00:40;96469.88;;;10.93;64.72
71917;BME280;59793;46.506;6.674;2023-03-14T13:03:37;96503.16;;;11.32;61.37
71917;BME280;59793;46.506;6.674;2023-03-14T13:06:05;96505.31;;;11.26;60.14
71917;BME280;59793;46.506;6.674;2023-03-14T13:11:07;96515.38;;;12.18;59.69
71917;BME280;59793;46.506;6.674;2023-03-14T13:13:35;96488.00;;;11.59;58.08
71917;BME280;59793;46.506;6.674;2023-03-14T13:16:02;96507.09;;;11.45;60.08
71917;BME280;59793;46.506;6.674;2023-03-14T13:21:17;96490.09;;;11.42;60.65
71917;BME280;59793;46.506;6.674;2023-03-14T13:24:01;96462.25;;;11.15;61.05
71917;BME280;59793;46.506;6.674;2023-03-14T13:26:42;96461.41;;;11.07;59.04
71917;BME280;59793;46.506;6.674;2023-03-14T13:29:32;96493.09;;;11.11;60.99
71917;BME280;59793;46.506;6.674;2023-03-14T13:32:00;96487.44;;;10.82;62.03
71917;BME280;59793;46.506;6.674;2023-03-14T13:34:28;96450.88;;;10.81;61.68
71917;BME280;59793;46.506;6.674;2023-03-14T13:36:54;96482.56;;;10.84;61.10
71917;BME280;59793;46.506;6.674;2023-03-14T13:39:24;96451.50;;;10.44;62.78
71917;BME280;59793;46.506;6.674;2023-03-14T13:41:53;96485.47;;;10.26;64.36
71917;BME280;59793;46.506;6.674;2023-03-14T13:44:26;96474.19;;;10.06;62.43
71917;BME280;59793;46.506;6.674;2023-03-14T13:46:57;96488.22;;;9.91;63.62
71917;BME280;59793;46.506;6.674;2023-03-14T13:49:25;96493.44;;;9.87;64.95
71917;BME280;59793;46.506;6.674;2023-03-14T13:51:51;96464.41;;;9.41;66.10
71917;BME280;59793;46.506;6.674;2023-03-14T13:54:19;96483.16;;;9.59;69.32
71917;BME280;59793;46.506;6.674;2023-03-14T13:56:46;96482.28;;;9.74;69.87
71917;BME280;59793;46.506;6.674;2023-03-14T13:59:22;96490.66;;;9.80;69.71
71917;BME280;59793;46.506;6.674;2023-03-14T14:01:47;96506.03;;;9.78;70.70
71917;BME280;59793;46.506;6.674;2023-03-14T14:04:19;96489.44;;;9.74;70.37
71917;BME280;59793;46.506;6.674;2023-03-14T14:06:49;96480.09;;;9.57;70.27
71917;BME280;59793;46.506;6.674;2023-03-14T14:09:27;96451.81;;;9.31;68.76
71917;BME280;59793;46.506;6.674;2023-03-14T14:11:54;96488.22;;;9.48;69.45
71917;BME280;59793;46.506;6.674;2023-03-14T14:16:49;96484.88;;;9.51;69.35
71917;BME280;59793;46.506;6.674;2023-03-14T14:19:17;96467.38;;;9.40;68.46
71917;BME280;59793;46.506;6.674;2023-03-14T14:21:44;96487.66;;;9.20;69.74
71917;BME280;59793;46.506;6.674;2023-03-14T14:24:14;96512.34;;;9.15;68.80
71917;BME280;59793;46.506;6.674;2023-03-14T14:26:46;96522.56;;;8.69;72.52
71917;BME280;59793;46.506;6.674;2023-03-14T14:29:25;96552.31;;;8.57;75.13
71917;BME280;59793;46.506;6.674;2023-03-14T14:32:01;96549.63;;;8.10;77.62
71917;BME280;59793;46.506;6.674;2023-03-14T14:34:28;96518.28;;;7.57;77.38
71917;BME280;59793;46.506;6.674;2023-03-14T14:36:56;96553.47;;;7.56;78.33
71917;BME280;59793;46.506;6.674;2023-03-14T14:39:28;96552.47;;;7.61;78.02
71917;BME280;59793;46.506;6.674;2023-03-14T14:41:55;96579.94;;;7.79;77.10
71917;BME280;59793;46.506;6.674;2023-03-14T14:44:28;96564.06;;;7.88;76.87
71917;BME280;59793;46.506;6.674;2023-03-14T14:46:55;96569.91;;;7.97;76.91
71917;BME280;59793;46.506;6.674;2023-03-14T14:49:28;96565.50;;;8.01;78.10
71917;BME280;59793;46.506;6.674;2023-03-14T14:52:05;96569.88;;;8.09;78.76
71917;BME280;59793;46.506;6.674;2023-03-14T14:54:34;96525.53;;;7.76;79.98
71917;BME280;59793;46.506;6.674;2023-03-14T14:57:04;96579.94;;;8.07;80.41
71917;BME280;59793;46.506;6.674;2023-03-14T14:59:29;96551.94;;;7.83;80.47
71917;BME280;59793;46.506;6.674;2023-03-14T15:02:00;96601.56;;;8.04;81.47
71917;BME280;59793;46.506;6.674;2023-03-14T15:04:27;96583.78;;;7.98;79.79
71917;BME280;59793;46.506;6.674;2023-03-14T15:06:54;96592.91;;;7.88;77.70